Etusivu
METAR-TAF:

METAR-TAF

Lentoasemat :

Epinal, Ranska

Leveyspiiri: 48-19-31N, Pituuspiiri: 6-04-00E, korkeus merenpinnasta: 330 m

Tämänhetkinen sää

Tämä raportti tehtiin 34 minuuttia sitten, kello 20.30 UTC
Tuuli 4 kn pohjoisesta
Lämpötila 2°C
Kosteus 93%
Ilmanpaine 1022 hPa
Näkyvyys 10 km tai enemmän
Hajanaisia pilviä 2700 ft:n korkeudessa
Hajonneita pilviä 3400 ft:n korkeudessa

METAR: LFSG 212030Z AUTO 36004KT 9999 SCT027 BKN034 02/01 Q1022

Aika: 23:04 (21:04 UTC)


TAF: puuttuu

Säähavainnot ja -ennusteet yli 4000 lentoasemalta (METAR- ja TAF-raportit).

Käytössä olevat sääasemat on merkitty karttaan keltaisilla ja punaisilla pisteillä.

Aseta hiiri pisteen päälle nähdäksesi sääaseman nimen.

Klikkaa sitten nähdäksesi säähavainnot ja -ennusteet.

Kartan vaihtaminen: klikkaa mustalla rastilla varustettuja vihreitä pisteitä, niin voit zoomata sisään; viivalla varustettua vihreää pistettä, niin voit zoomata ulos tai vihreitä nuolia, niin pääset viereisille kartoille.


METAR-TAF: